Погода Дерюшинона неделю

Тверская область, Россия

18 - 24 мая
  • 18мая
    Сегодня
    +7°
    +21°
    Ясно и безоблачно
    ВремяПогодаТемператураВлажностьДавлениеВетер, м/сВероятность осадков
    00:00Практически безоблачно+11°C64 %747 мм3.5 м/с2 %
    03:00Ясно и безоблачно+8°C79 %747 мм2.6 м/с2 %
    06:00Ясно и безоблачно+8°C81 %748 мм2.4 м/с2 %
    09:00Ясно и безоблачно+15°C60 %748 мм2.7 м/с2 %
    12:00Ясно и безоблачно+19°C46 %748 мм2.5 м/с2 %
    15:00Ясно и безоблачно+21°C38 %748 мм2.1 м/с2 %
    18:00Ясно и безоблачно+20°C44 %747 мм2.0 м/с2 %
    21:00Ясно и безоблачно+15°C67 %746 мм2.1 м/с2 %
  • 19мая
    Воскресенье
    +10°
    +22°
    Облачно с прояснениями
    ВремяПогодаТемператураВлажностьДавлениеВетер, м/сВероятность осадков
    00:00Небольшая облачность+11°C73 %747 мм3.1 м/с2 %
    03:00Ясно и безоблачно+8°C78 %747 мм2.4 м/с2 %
    06:00Ясно и безоблачно+8°C82 %746 мм2.1 м/с2 %
    09:00Ясно и безоблачно+16°C61 %747 мм1.7 м/с2 %
    12:00Ясно и безоблачно+19°C48 %746 мм1.3 м/с2 %
    15:00Облачно с прояснениями+22°C39 %745 мм0.9 м/с2 %
    18:00Облачно с прояснениями+21°C45 %744 мм1.9 м/с2 %
    21:00Практически безоблачно+16°C60 %744 мм3.4 м/с2 %
  • 20мая
    Понедельник
    +9°
    +22°
    Практически безоблачно
    ВремяПогодаТемператураВлажностьДавлениеВетер, м/сВероятность осадков
    00:00Практически безоблачно+12°C68 %744 мм3.6 м/с2 %
    03:00Облачно с прояснениями+11°C73 %744 мм2.7 м/с2 %
    06:00Облачно с прояснениями+12°C72 %744 мм2.4 м/с2 %
    09:00Ясно и безоблачно+18°C58 %744 мм2.6 м/с2 %
    12:00Практически безоблачно+21°C41 %744 мм2.6 м/с15 %
    15:00Практически безоблачно+22°C40 %744 мм2.2 м/с30 %
    18:00Облачно с прояснениями+21°C47 %743 мм2.2 м/с43 %
    21:00Облачно с прояснениями+16°C82 %744 мм1.8 м/с31 %
  • 21мая
    Вторник
    +8°
    +22°
    Облачно с прояснениями
    ВремяПогодаТемператураВлажностьДавлениеВетер, м/сВероятность осадков
    00:00Практически безоблачно+12°C90 %744 мм1.9 м/с12 %
    03:00Облачно с прояснениями+10°C96 %744 мм1.9 м/с13 %
    06:00Небольшая облачность+11°C97 %745 мм1.3 м/с18 %
    09:00Облачно с прояснениями+17°C84 %746 мм1.6 м/с17 %
    12:00Пасмурно, сплошная облачность+20°C63 %747 мм1.6 м/с41 %
    15:00Облачно с прояснениями+21°C53 %746 мм2.2 м/с42 %
    18:00Ясно и безоблачно+21°C46 %746 мм3.4 м/с40 %
    21:00Ясно и безоблачно+15°C53 %746 мм2.7 м/с7 %
  • 22мая
    Среда
    +7°
    +21°
    Практически безоблачно
    ВремяПогодаТемператураВлажностьДавлениеВетер, м/сВероятность осадков
    00:00Ясно и безоблачно+11°C60 %747 мм3.5 м/с2 %
    03:00Ясно и безоблачно+9°C58 %747 мм3.1 м/с2 %
    06:00Ясно и безоблачно+9°C68 %748 мм2.7 м/с2 %
    09:00Ясно и безоблачно+16°C56 %748 мм2.7 м/с2 %
    12:00Ясно и безоблачно+20°C46 %748 мм2.9 м/с10 %
    15:00Практически безоблачно+21°C39 %748 мм3.4 м/с15 %
    18:00Практически безоблачно+19°C41 %748 мм3.7 м/с16 %
    21:00Ясно и безоблачно+15°C53 %749 мм3.6 м/с2 %
Мы используем cookies
Соглашаюсь